Time;durP1;ratioP1;P1;durP2;ratioP2;P2;SDS_P1;SDS_P2;PMS_P1;PMS_P2;Temp;Humidity;BMP_temperature;BMP_pressure;BME280_temperature;BME280_humidity;BME280_pressure;Samples;Min_cycle;Max_cycle;Signal;HPM_P1;HPM_P2
2021/03/24 00:00:45;;;;;;;13.77;8.70;;;;;;;-3.54;95.25;93716.16;2098212;28;20854;-83
2021/03/24 00:01:47;;;;;;;11.63;8.10;;;;;;;-3.58;95.13;93721.22;2086720;28;20028;-87
2021/03/24 00:02:47;;;;;;;12.80;8.70;;;;;;;-3.57;94.54;93714.91;2096890;28;20501;-87
2021/03/24 00:03:48;;;;;;;14.98;9.13;;;;;;;-3.61;95.53;93718.47;2103790;28;20462;-82
2021/03/24 00:04:49;;;;;;;13.75;8.88;;;;;;;-3.69;94.87;93712.16;2106436;28;20051;-81
2021/03/24 00:05:51;;;;;;;12.93;8.23;;;;;;;-3.70;95.19;93722.94;2102406;28;20446;-84
2021/03/24 00:06:52;;;;;;;14.75;8.77;;;;;;;-3.76;95.22;93719.72;2110905;28;20542;-81
2021/03/24 00:07:53;;;;;;;15.07;9.05;;;;;;;-3.72;94.95;93714.66;2098295;28;20485;-82
2021/03/24 00:08:53;;;;;;;14.77;9.32;;;;;;;-3.78;94.67;93727.09;2098358;28;20989;-82
2021/03/24 00:09:54;;;;;;;11.85;7.97;;;;;;;-3.72;95.54;93718.03;2081851;28;20021;-85
2021/03/24 00:10:54;;;;;;;13.43;8.55;;;;;;;-3.73;95.19;93716.50;2089943;28;20572;-84
2021/03/24 00:11:55;;;;;;;11.73;8.88;;;;;;;-3.72;95.10;93720.66;2098376;28;20027;-84
2021/03/24 00:12:56;;;;;;;14.43;8.55;;;;;;;-3.73;95.07;93721.72;2095324;28;20075;-82
2021/03/24 00:13:57;;;;;;;15.88;8.65;;;;;;;-3.76;94.75;93724.97;2089920;28;20043;-85
2021/03/24 00:14:57;;;;;;;13.90;9.02;;;;;;;-3.75;94.86;93723.09;2098310;28;20438;-87
2021/03/24 00:15:59;;;;;;;13.55;9.43;;;;;;;-3.74;95.02;93720.19;2089896;28;20021;-83
2021/03/24 00:17:00;;;;;;;12.80;8.80;;;;;;;-3.77;94.42;93722.66;2090235;28;20047;-81
2021/03/24 00:18:02;;;;;;;12.80;8.38;;;;;;;-3.77;95.02;93720.81;2081741;28;20447;-83
2021/03/24 00:19:03;;;;;;;13.25;8.43;;;;;;;-3.76;94.70;93716.34;2081810;28;20470;-82
2021/03/24 00:20:07;;;;;;;13.18;8.63;;;;;;;-3.74;94.67;93724.63;2097904;28;20492;-83
2021/03/24 00:21:09;;;;;;;14.88;9.25;;;;;;;-3.78;94.94;93716.66;2098226;28;20031;-86
2021/03/24 00:22:09;;;;;;;12.90;8.65;;;;;;;-3.78;95.50;93716.66;2095077;28;20974;-83
2021/03/24 00:23:11;;;;;;;14.43;8.75;;;;;;;-3.85;95.26;93719.75;2114423;28;20457;-88
2021/03/24 00:24:11;;;;;;;12.60;8.43;;;;;;;-3.86;95.60;93718.22;2119194;27;20019;-84
2021/03/24 00:25:15;;;;;;;15.93;9.20;;;;;;;-3.82;95.60;93726.19;2114121;28;20546;-85
2021/03/24 00:26:16;;;;;;;12.88;9.00;;;;;;;-3.80;95.56;93731.88;2105114;28;20020;-87
2021/03/24 00:27:17;;;;;;;12.18;8.75;;;;;;;-3.83;95.79;93735.09;2097473;28;20446;-87
2021/03/24 00:28:19;;;;;;;14.70;9.30;;;;;;;-3.80;95.89;93732.63;2097422;28;20036;-87
2021/03/24 00:29:19;;;;;;;12.60;9.00;;;;;;;-3.80;96.57;93726.66;2093930;28;20455;-84
2021/03/24 00:30:26;;;;;;;13.00;8.93;;;;;;;-3.76;97.06;93718.97;2097592;28;20846;-82
2021/03/24 00:31:26;;;;;;;14.25;8.68;;;;;;;-3.77;96.41;93727.88;2097892;28;20021;-82
2021/03/24 00:32:27;;;;;;;13.23;8.77;;;;;;;-3.81;97.06;93730.34;2097565;28;20457;-85
2021/03/24 00:33:27;;;;;;;11.93;8.43;;;;;;;-3.84;97.23;93723.88;2087860;28;20103;-84
2021/03/24 00:34:28;;;;;;;12.10;8.57;;;;;;;-3.86;96.91;93720.81;2103169;28;20112;-84
2021/03/24 00:35:28;;;;;;;15.63;9.32;;;;;;;-3.85;96.75;93718.97;2114831;28;20020;-84
2021/03/24 00:36:29;;;;;;;14.05;8.63;;;;;;;-3.83;96.29;93714.97;2114667;28;20148;-86
2021/03/24 00:37:29;;;;;;;17.90;9.63;;;;;;;-3.85;96.19;93721.59;2093186;28;20024;-87
2021/03/24 00:38:30;;;;;;;15.75;9.27;;;;;;;-3.85;96.03;93717.13;2098126;28;20033;-88
2021/03/24 00:39:30;;;;;;;12.65;8.45;;;;;;;-3.82;96.26;93716.53;2093328;28;20421;-83
2021/03/24 00:40:38;;;;;;;13.77;8.68;;;;;;;-3.82;95.67;93713.13;2106445;28;20048;-85
2021/03/24 00:41:39;;;;;;;11.90;8.45;;;;;;;-3.81;95.86;93715.44;2107391;28;20047;-84
2021/03/24 00:42:39;;;;;;;11.60;8.32;;;;;;;-3.80;96.62;93718.81;2097990;28;20461;-85
2021/03/24 00:43:39;;;;;;;12.63;8.30;;;;;;;-3.78;96.62;93721.09;2093860;28;20051;-86
2021/03/24 00:44:40;;;;;;;16.50;9.00;;;;;;;-3.84;96.04;93718.66;2097605;28;20147;-83
2021/03/24 00:45:41;;;;;;;14.15;8.55;;;;;;;-3.86;95.83;93714.84;2090310;28;20393;-86
2021/03/24 00:46:42;;;;;;;13.77;8.70;;;;;;;-3.88;95.06;93712.53;2097920;28;20025;-88
2021/03/24 00:47:42;;;;;;;11.68;8.25;;;;;;;-3.94;95.17;93713.78;2105873;28;20446;-85
2021/03/24 00:48:43;;;;;;;10.95;7.90;;;;;;;-3.86;94.93;93707.00;2097449;28;20024;-81
2021/03/24 00:49:43;;;;;;;15.93;9.25;;;;;;;-3.89;94.63;93715.44;2089182;28;20025;-83
2021/03/24 00:50:44;;;;;;;11.95;8.32;;;;;;;-3.91;94.83;93709.75;2096208;28;20044;-85
2021/03/24 00:51:45;;;;;;;16.35;8.55;;;;;;;-3.91;94.77;93712.38;2097859;28;20119;-86
2021/03/24 00:52:46;;;;;;;14.20;9.18;;;;;;;-3.95;94.66;93711.44;2086963;28;20382;-82
2021/03/24 00:53:46;;;;;;;15.88;9.73;;;;;;;-3.95;95.22;93714.84;2089389;28;20380;-83
2021/03/24 00:54:47;;;;;;;13.98;8.98;;;;;;;-3.97;94.78;93716.22;2087098;28;20028;-85
2021/03/24 00:55:48;;;;;;;12.63;8.85;;;;;;;-4.02;94.71;93719.00;2089516;28;20395;-88
2021/03/24 00:56:49;;;;;;;12.85;9.07;;;;;;;-4.00;95.05;93711.63;2089621;28;20382;-82
2021/03/24 00:57:50;;;;;;;14.73;9.25;;;;;;;-3.98;95.35;93712.09;2101814;28;20453;-83
2021/03/24 00:58:50;;;;;;;12.98;9.35;;;;;;;-4.00;95.20;93709.78;2099936;28;20020;-82
2021/03/24 00:59:50;;;;;;;11.10;7.63;;;;;;;-4.08;95.06;93713.94;2106121;28;20488;-83
2021/03/24 01:00:52;;;;;;;13.48;8.35;;;;;;;-4.06;94.51;93716.22;2106183;28;20058;-81
2021/03/24 01:01:52;;;;;;;13.68;8.68;;;;;;;-4.04;95.29;93708.84;2089677;28;20028;-83
2021/03/24 01:02:53;;;;;;;12.77;8.55;;;;;;;-4.06;95.61;93709.16;2089619;28;20438;-82
2021/03/24 01:03:53;;;;;;;13.95;8.70;;;;;;;-4.09;95.27;93709.78;2089318;28;20037;-86
2021/03/24 01:04:53;;;;;;;11.48;8.27;;;;;;;-4.10;94.89;93705.63;2106055;28;20502;-83
2021/03/24 01:05:54;;;;;;;15.13;8.27;;;;;;;-4.08;95.08;93708.72;2089475;28;20083;-84
2021/03/24 01:06:54;;;;;;;13.23;8.63;;;;;;;-4.09;95.36;93712.38;2087883;28;20052;-85
2021/03/24 01:08:05;;;;;;;13.63;8.20;;;;;;;-4.06;95.44;93708.41;2089526;28;20017;-85
2021/03/24 01:09:08;;;;;;;13.07;8.18;;;;;;;-4.08;94.20;93707.97;2084049;28;20049;-84
2021/03/24 01:10:33;;;;;;;14.20;8.88;;;;;;;-4.17;94.34;93702.75;2090317;28;20513;-83
2021/03/24 01:11:38;;;;;;;11.65;8.10;;;;;;;-4.20;94.47;93705.19;2108532;28;20507;-84
2021/03/24 01:12:39;;;;;;;14.80;9.23;;;;;;;-4.13;95.11;93702.88;2106916;28;20422;-86
2021/03/24 01:13:39;;;;;;;13.25;8.55;;;;;;;-4.15;95.21;93697.97;2106425;28;20422;-86
2021/03/24 01:14:40;;;;;;;13.65;8.80;;;;;;;-4.15;95.33;93695.38;2097473;28;20044;-87
2021/03/24 01:15:40;;;;;;;13.77;8.93;;;;;;;-4.19;94.98;93702.28;2092832;28;20020;-86
2021/03/24 01:16:41;;;;;;;15.35;9.00;;;;;;;-4.16;94.79;93706.88;2102678;28;20477;-84
2021/03/24 01:17:42;;;;;;;14.45;8.70;;;;;;;-4.15;95.20;93707.66;2102772;28;20128;-85
2021/03/24 01:18:42;;;;;;;12.85;9.30;;;;;;;-4.14;94.32;93699.50;2106141;28;20020;-83
2021/03/24 01:19:43;;;;;;;15.20;9.32;;;;;;;-4.16;94.22;93693.06;2106049;28;20031;-84
2021/03/24 01:20:44;;;;;;;12.70;8.68;;;;;;;-4.18;94.42;93695.22;2114663;28;20459;-86
2021/03/24 01:21:44;;;;;;;13.90;8.63;;;;;;;-4.15;93.93;93681.53;2105817;28;20453;-85
2021/03/24 01:22:45;;;;;;;13.30;8.88;;;;;;;-4.09;93.80;93688.13;2089416;28;20409;-87
2021/03/24 01:23:45;;;;;;;13.45;8.50;;;;;;;-4.18;93.50;93693.34;2088576;28;20441;-86
2021/03/24 01:24:46;;;;;;;13.35;8.60;;;;;;;-4.12;93.78;93689.53;2098729;28;20102;-82
2021/03/24 01:25:47;;;;;;;14.02;9.07;;;;;;;-4.15;93.56;93687.53;2093756;28;20094;-84
2021/03/24 01:26:47;;;;;;;13.70;9.07;;;;;;;-4.19;94.48;93689.22;2106012;28;20431;-85
2021/03/24 01:27:49;;;;;;;12.00;9.05;;;;;;;-4.22;93.86;93676.03;2105816;28;20016;-85
2021/03/24 01:28:59;;;;;;;13.82;8.90;;;;;;;-4.19;93.52;93686.59;2106178;28;20024;-84
2021/03/24 01:29:59;;;;;;;12.63;8.20;;;;;;;-4.16;93.02;93685.25;2098741;28;20439;-83
2021/03/24 01:31:00;;;;;;;14.60;8.77;;;;;;;-4.16;93.49;93680.78;2094295;28;20115;-85
2021/03/24 01:32:01;;;;;;;16.38;9.45;;;;;;;-4.15;93.59;93681.53;2097765;28;20032;-85
2021/03/24 01:33:02;;;;;;;13.52;8.85;;;;;;;-4.18;93.46;93685.53;2105386;28;20430;-86
2021/03/24 01:34:02;;;;;;;15.20;8.82;;;;;;;-4.18;93.36;93676.94;2097614;28;20024;-86
2021/03/24 01:35:05;;;;;;;12.27;7.88;;;;;;;-4.20;92.86;93684.31;2093142;28;20804;-86
2021/03/24 01:36:06;;;;;;;12.65;8.13;;;;;;;-4.26;92.85;93678.47;2089836;28;20032;-87
2021/03/24 01:37:07;;;;;;;14.27;9.32;;;;;;;-4.31;92.83;93683.84;2089339;28;21063;-84
2021/03/24 01:38:07;;;;;;;14.50;8.93;;;;;;;-4.28;93.80;93675.41;2106028;28;20046;-83
2021/03/24 01:39:08;;;;;;;11.85;8.60;;;;;;;-4.27;93.87;93687.38;2122993;27;20077;-83
2021/03/24 01:40:13;;;;;;;14.88;9.20;;;;;;;-4.36;94.48;93676.19;2097571;28;20020;-84
2021/03/24 01:41:14;;;;;;;14.15;8.82;;;;;;;-4.37;94.29;93682.47;2091000;28;20025;-84
2021/03/24 01:42:15;;;;;;;13.75;8.90;;;;;;;-4.32;94.28;93682.31;2094807;28;20447;-85
2021/03/24 01:43:26;;;;;;;14.23;8.95;;;;;;;-4.35;93.79;93677.72;2089034;28;21013;-84
2021/03/24 01:44:27;;;;;;;14.07;8.50;;;;;;;-4.32;94.33;93692.75;2087867;28;20051;-86
2021/03/24 01:45:30;;;;;;;16.02;8.93;;;;;;;-4.36;95.15;93690.00;2083913;28;20443;-83
2021/03/24 01:46:35;;;;;;;13.93;8.00;;;;;;;-4.37;94.13;93687.69;2089859;28;20082;-85
2021/03/24 01:47:36;;;;;;;14.10;8.68;;;;;;;-4.28;93.71;93687.69;2096369;28;20451;-86
2021/03/24 01:48:37;;;;;;;14.05;9.23;;;;;;;-4.34;92.61;93685.25;2089215;28;20444;-84
2021/03/24 01:49:39;;;;;;;15.35;9.00;;;;;;;-4.33;92.24;93693.84;2101980;28;20042;-85
2021/03/24 01:50:39;;;;;;;15.18;9.18;;;;;;;-4.47;93.27;93688.03;2102256;28;20478;-84
2021/03/24 01:51:48;;;;;;;14.20;9.45;;;;;;;-4.47;93.78;93683.56;2103108;28;20500;-82
2021/03/24 01:52:48;;;;;;;15.82;8.32;;;;;;;-4.46;93.36;93686.94;2091315;28;20152;-85
2021/03/24 01:53:50;;;;;;;15.23;9.23;;;;;;;-4.41;93.83;93689.38;2097630;28;20613;-83
2021/03/24 01:54:51;;;;;;;16.45;9.45;;;;;;;-4.41;94.35;93684.16;2105871;28;20051;-85
2021/03/24 01:55:51;;;;;;;14.77;9.52;;;;;;;-4.45;94.98;93684.00;2105816;28;20861;-86
2021/03/24 01:57:04;;;;;;;13.27;8.65;;;;;;;-4.49;94.42;93682.31;2089131;28;20435;-89
2021/03/24 01:58:05;;;;;;;14.23;8.32;;;;;;;-4.43;95.13;93681.88;2090930;28;20025;-87
2021/03/24 01:59:06;;;;;;;13.20;8.88;;;;;;;-4.49;94.63;93677.09;2101686;28;20926;-82
2021/03/24 02:00:18;;;;;;;14.02;9.02;;;;;;;-4.40;94.30;93680.47;2100181;28;21635;-86
2021/03/24 02:01:20;;;;;;;12.85;8.73;;;;;;;-4.45;94.05;93684.00;2100680;28;20978;-86
2021/03/24 02:02:28;;;;;;;10.68;7.65;;;;;;;-4.46;93.08;93686.94;2106038;28;20430;-85
2021/03/24 02:03:31;;;;;;;14.35;9.00;;;;;;;-4.47;93.26;93685.41;2116704;27;20453;-85
2021/03/24 02:04:32;;;;;;;15.93;8.98;;;;;;;-4.44;94.50;93684.78;2114098;28;20469;-82
2021/03/24 02:05:33;;;;;;;16.35;9.20;;;;;;;-4.46;94.61;93684.31;2105798;28;20483;-84
2021/03/24 02:06:45;;;;;;;15.52;9.50;;;;;;;-4.47;94.37;93680.19;2114354;28;20024;-86
2021/03/24 02:08:14;;;;;;;13.65;8.68;;;;;;;-4.46;94.79;93684.31;2114003;28;21424;-84
2021/03/24 02:09:35;;;;;;;15.45;8.27;;;;;;;-4.45;95.64;93680.63;2108529;28;20445;-84
2021/03/24 02:10:51;;;;;;;15.10;9.23;;;;;;;-4.44;95.82;93693.38;2108689;28;20449;-87
2021/03/24 02:12:03;;;;;;;16.25;8.93;;;;;;;-4.44;96.07;93687.38;2101712;28;20454;-87
2021/03/24 02:13:08;;;;;;;15.82;8.90;;;;;;;-4.48;95.47;93689.84;2094057;28;20444;-82
2021/03/24 02:14:32;;;;;;;15.60;9.40;;;;;;;-4.49;95.33;93690.16;2098541;28;20439;-83
2021/03/24 02:15:39;;;;;;;13.32;9.00;;;;;;;-4.46;96.24;93679.88;2108728;28;20510;-87
2021/03/24 02:16:48;;;;;;;15.10;8.63;;;;;;;-4.48;95.91;93678.63;2105981;28;20454;-88
2021/03/24 02:17:50;;;;;;;16.23;8.60;;;;;;;-4.51;96.25;93681.88;2107016;28;20438;-87
2021/03/24 02:18:53;;;;;;;14.23;8.40;;;;;;;-4.51;94.70;93674.06;2097741;28;20954;-87
2021/03/24 02:20:02;;;;;;;13.18;8.88;;;;;;;-4.47;94.54;93675.75;2098283;28;20865;-84
2021/03/24 02:21:10;;;;;;;14.52;8.18;;;;;;;-4.45;94.87;93670.97;2099866;28;20443;-83
2021/03/24 02:22:15;;;;;;;12.20;7.88;;;;;;;-4.44;94.34;93675.09;2099379;28;20505;-85
2021/03/24 02:23:36;;;;;;;13.27;8.30;;;;;;;-4.46;94.06;93681.72;2106370;28;20426;-84
2021/03/24 02:24:44;;;;;;;;;;;;;;;-4.50;94.07;93675.56;2100477;28;20471;-84
2021/03/24 02:25:52;;;;;;;12.27;7.30;;;;;;;-4.56;94.55;93683.56;2090877;28;20462;-85
2021/03/24 02:27:21;;;;;;;10.95;7.82;;;;;;;-4.51;94.69;93677.44;2097351;28;20443;-84
2021/03/24 02:28:22;;;;;;;11.57;6.97;;;;;;;-4.39;93.88;93682.00;2093028;28;20443;-83
2021/03/24 02:29:23;;;;;;;12.18;7.55;;;;;;;-4.54;94.50;93685.09;2089272;28;20397;-85
2021/03/24 02:30:31;;;;;;;13.90;8.50;;;;;;;-4.55;95.27;93681.72;2089235;28;20017;-85
2021/03/24 02:31:34;;;;;;;14.75;8.32;;;;;;;-4.57;95.14;93681.25;2087000;28;20629;-85
2021/03/24 02:32:42;;;;;;;14.02;8.40;;;;;;;-4.54;94.66;93679.88;2097825;28;21058;-84
2021/03/24 02:33:44;;;;;;;15.68;8.55;;;;;;;-4.51;95.78;93676.66;2099412;28;20779;-87
2021/03/24 02:34:47;;;;;;;13.68;8.93;;;;;;;-4.53;95.76;93676.94;2093565;28;20435;-87
2021/03/24 02:35:50;;;;;;;13.38;8.15;;;;;;;-4.52;95.43;93675.09;2089600;28;20943;-82
2021/03/24 02:36:56;;;;;;;10.90;7.65;;;;;;;-4.55;96.04;93676.50;2097721;28;20781;-82
2021/03/24 02:37:59;;;;;;;13.15;8.57;;;;;;;-4.62;96.50;93678.78;2098022;28;20443;-86
2021/03/24 02:39:04;;;;;;;16.15;8.80;;;;;;;-4.61;96.19;93675.09;2106214;28;20556;-84
2021/03/24 02:40:12;;;;;;;14.00;8.73;;;;;;;-4.63;96.69;93678.03;2111851;28;20433;-84
2021/03/24 02:41:13;;;;;;;12.02;8.27;;;;;;;-4.64;96.31;93673.88;2114091;28;20436;-85
2021/03/24 02:42:15;;;;;;;11.45;7.78;;;;;;;-4.59;96.36;93673.72;2101955;28;21027;-86
2021/03/24 02:43:19;;;;;;;15.05;9.00;;;;;;;-4.59;96.02;93672.97;2101404;28;20439;-85
2021/03/24 02:44:20;;;;;;;13.82;8.60;;;;;;;-4.57;97.10;93678.63;2089585;28;20989;-84
2021/03/24 02:45:25;;;;;;;17.13;8.80;;;;;;;-4.62;96.53;93674.34;2105754;28;20442;-85
2021/03/24 02:46:27;;;;;;;13.73;8.30;;;;;;;-4.65;95.21;93677.56;2097942;28;20483;-83
2021/03/24 02:47:27;;;;;;;13.95;7.88;;;;;;;-4.70;94.36;93671.72;2094982;28;20791;-87
2021/03/24 02:48:31;;;;;;;12.82;7.90;;;;;;;-4.67;94.27;93674.50;2105636;28;20434;-87
2021/03/24 02:49:33;;;;;;;13.20;8.38;;;;;;;-4.64;94.43;93670.50;2098064;28;20039;-82
2021/03/24 02:50:36;;;;;;;11.65;7.43;;;;;;;-4.66;95.45;93670.81;2105801;28;21110;-83
2021/03/24 02:51:39;;;;;;;11.93;8.07;;;;;;;-4.65;95.65;93674.22;2097864;28;20457;-83
2021/03/24 02:52:40;;;;;;;11.02;7.90;;;;;;;-4.65;95.49;93677.56;2097614;28;20761;-81
2021/03/24 02:53:41;;;;;;;12.55;8.10;;;;;;;-4.61;95.69;93675.91;2102167;28;20487;-83
2021/03/24 02:54:44;;;;;;;14.38;8.60;;;;;;;-4.66;95.56;93675.25;2113015;28;20415;-85
2021/03/24 02:55:45;;;;;;;15.52;8.10;;;;;;;-4.63;95.28;93680.63;2101823;28;20454;-82
2021/03/24 02:56:46;;;;;;;12.20;7.68;;;;;;;-4.59;94.75;93670.38;2097316;28;20462;-84
2021/03/24 02:57:46;;;;;;;10.25;7.43;;;;;;;-4.64;94.54;93676.50;2097247;28;20028;-82
2021/03/24 02:58:50;;;;;;;11.23;7.43;;;;;;;-4.64;93.67;93675.72;2113763;28;20429;-81
2021/03/24 02:59:52;;;;;;;11.35;7.22;;;;;;;-4.64;94.76;93671.28;2114332;28;20399;-83
2021/03/24 03:00:53;;;;;;;10.93;7.50;;;;;;;-4.54;94.92;93674.66;2101559;28;20468;-87
2021/03/24 03:02:08;;;;;;;13.98;8.50;;;;;;;-4.62;94.79;93673.56;2096037;28;20475;-82
2021/03/24 03:03:15;;;;;;;16.08;8.05;;;;;;;-4.64;94.34;93675.72;2094026;28;20438;-83
2021/03/24 03:04:28;;;;;;;13.35;8.13;;;;;;;-4.68;94.44;93677.41;2093185;28;20553;-84
2021/03/24 03:05:32;;;;;;;11.65;7.55;;;;;;;-4.71;94.33;93678.78;2098907;28;20441;-87
2021/03/24 03:06:34;;;;;;;12.43;8.25;;;;;;;-4.72;95.00;93672.03;2091009;28;20431;-80
2021/03/24 03:07:42;;;;;;;13.38;8.38;;;;;;;-4.69;94.36;93674.03;2106667;28;20479;-81
2021/03/24 03:08:48;;;;;;;11.10;7.95;;;;;;;-4.70;94.12;93669.13;2100931;28;20549;-82
2021/03/24 03:09:51;;;;;;;11.07;8.07;;;;;;;-4.71;94.13;93670.19;2107948;27;20767;-82
2021/03/24 03:11:03;;;;;;;9.93;7.00;;;;;;;-4.75;94.82;93662.22;2107534;28;20452;-82
2021/03/24 03:12:10;;;;;;;10.18;7.47;;;;;;;-4.79;94.48;93671.72;2101948;28;20541;-80
2021/03/24 03:13:20;;;;;;;12.32;8.18;;;;;;;-4.75;93.79;93666.66;2097106;28;20442;-83
2021/03/24 03:14:39;;;;;;;11.80;7.68;;;;;;;-4.75;93.96;93670.03;2095173;28;20456;-83
2021/03/24 03:15:53;;;;;;;11.48;7.95;;;;;;;-4.80;94.64;93670.19;2093355;28;20021;-82
2021/03/24 03:16:59;;;;;;;12.30;7.40;;;;;;;-4.72;94.13;93668.66;2103849;28;21113;-84
2021/03/24 03:18:18;;;;;;;13.02;7.60;;;;;;;-4.75;94.62;93664.81;2114991;27;20438;-84
2021/03/24 03:19:27;;;;;;;11.57;7.47;;;;;;;-4.70;94.12;93671.72;2109519;28;21010;-84
2021/03/24 03:20:32;;;;;;;12.38;7.38;;;;;;;-4.72;93.74;93663.44;2100890;28;20450;-84
2021/03/24 03:21:43;;;;;;;13.07;7.80;;;;;;;-4.74;94.69;93668.97;2107683;28;20464;-80
2021/03/24 03:22:51;;;;;;;11.02;7.60;;;;;;;-4.79;94.05;93660.53;2108367;28;20442;-82
2021/03/24 03:23:54;;;;;;;11.27;7.97;;;;;;;-4.76;94.23;93668.50;2108135;28;20422;-81
2021/03/24 03:25:00;;;;;;;12.95;8.02;;;;;;;-4.81;93.46;93666.06;2107072;28;20823;-82
2021/03/24 03:26:15;;;;;;;11.13;7.80;;;;;;;-4.73;93.67;93667.13;2090627;28;20438;-83
2021/03/24 03:27:19;;;;;;;11.80;7.22;;;;;;;-4.72;93.31;93668.66;2102856;28;20982;-82
2021/03/24 03:28:20;;;;;;;12.77;8.05;;;;;;;-4.77;93.01;93672.19;2099117;28;21053;-84
2021/03/24 03:29:21;;;;;;;10.85;7.00;;;;;;;-4.76;93.45;93665.13;2098665;28;20431;-84
2021/03/24 03:30:29;;;;;;;12.63;7.50;;;;;;;-4.77;92.59;93663.59;2098251;28;20079;-81
2021/03/24 03:31:34;;;;;;;12.07;7.65;;;;;;;-4.85;93.76;93665.13;2109170;27;20430;-84
2021/03/24 03:32:37;;;;;;;12.63;7.57;;;;;;;-4.87;94.16;93662.06;2115254;28;20441;-84
2021/03/24 03:33:42;;;;;;;11.88;7.82;;;;;;;-4.89;93.97;93666.81;2101590;28;20449;-82
2021/03/24 03:34:46;;;;;;;14.45;8.98;;;;;;;-4.89;94.94;93664.19;2115807;27;20426;-83
2021/03/24 03:35:46;;;;;;;16.33;7.72;;;;;;;-4.93;94.70;93663.28;2116041;27;20413;-82
2021/03/24 03:36:50;;;;;;;13.73;8.00;;;;;;;-4.91;94.66;93667.13;2115498;28;20433;-84
2021/03/24 03:37:56;;;;;;;11.07;7.93;;;;;;;-4.84;94.58;93662.19;2115882;28;20024;-85
2021/03/24 03:39:00;;;;;;;9.23;7.05;;;;;;;-4.86;94.29;93676.63;2123864;27;20432;-83
2021/03/24 03:40:01;;;;;;;14.02;7.90;;;;;;;-4.88;94.19;93666.50;2113817;28;20453;-80
2021/03/24 03:41:04;;;;;;;15.48;8.25;;;;;;;-4.90;94.62;93667.88;2098657;28;21025;-85
2021/03/24 03:42:07;;;;;;;11.98;7.78;;;;;;;-4.91;94.58;93666.34;2091110;28;20023;-85
2021/03/24 03:43:09;;;;;;;13.07;7.82;;;;;;;-4.93;94.56;93663.28;2090456;28;20432;-83
2021/03/24 03:44:10;;;;;;;12.13;8.07;;;;;;;-4.94;95.53;93672.16;2090727;28;20472;-84
2021/03/24 03:45:13;;;;;;;11.38;7.68;;;;;;;-4.92;94.47;93665.56;2098386;28;20536;-84
2021/03/24 03:46:17;;;;;;;13.05;7.88;;;;;;;-4.92;94.90;93667.41;2090708;28;20505;-83
2021/03/24 03:47:17;;;;;;;11.15;8.15;;;;;;;-4.91;95.90;93669.72;2083017;28;20848;-89
2021/03/24 03:48:19;;;;;;;15.13;8.45;;;;;;;-4.92;95.88;93662.94;2081814;28;20432;-84
2021/03/24 03:49:21;;;;;;;13.68;8.63;;;;;;;-4.90;95.28;93668.66;2090661;28;20108;-86
2021/03/24 03:50:25;;;;;;;12.10;8.07;;;;;;;-4.92;95.44;93664.78;2091279;28;20538;-83
2021/03/24 03:51:51;;;;;;;14.35;8.43;;;;;;;-4.91;95.21;93663.75;2104534;28;21323;-83
2021/03/24 03:53:29;;;;;;;10.77;7.88;;;;;;;-4.89;95.12;93664.97;2120315;27;20808;-81
2021/03/24 03:54:40;;;;;;;11.70;7.20;;;;;;;-4.94;94.99;93665.13;2106756;28;20406;-84
2021/03/24 03:56:04;;;;;;;14.15;8.38;;;;;;;-4.92;95.43;93664.78;2112389;28;20475;-82
2021/03/24 03:57:09;;;;;;;10.40;6.72;;;;;;;-4.95;95.32;93662.81;2103801;28;20558;-82
2021/03/24 03:58:25;;;;;;;11.02;7.68;;;;;;;-4.92;95.55;93659.59;2099328;28;20443;-83
2021/03/24 03:59:35;;;;;;;12.43;7.93;;;;;;;-4.93;95.25;93663.28;2091392;28;20490;-83
2021/03/24 04:00:44;;;;;;;14.60;7.55;;;;;;;-4.94;94.96;93666.97;2101037;28;20427;-81
2021/03/24 04:01:50;;;;;;;12.20;7.53;;;;;;;-4.93;94.38;93668.47;2109125;27;20031;-83
2021/03/24 04:02:53;;;;;;;11.10;7.40;;;;;;;-4.93;93.18;93668.47;2098881;28;20040;-86
2021/03/24 04:03:57;;;;;;;12.45;7.35;;;;;;;-4.96;93.76;93664.66;2098210;28;20446;-81
2021/03/24 04:05:03;;;;;;;11.82;7.90;;;;;;;-4.97;93.13;93663.09;2107846;28;20560;-82
2021/03/24 04:06:15;;;;;;;10.00;7.15;;;;;;;-4.94;93.41;93665.13;2098216;28;20438;-80
2021/03/24 04:07:26;;;;;;;12.45;7.75;;;;;;;-4.96;94.25;93667.28;2099926;28;20545;-83
2021/03/24 04:08:32;;;;;;;13.48;7.53;;;;;;;-4.99;95.14;93664.50;2091405;28;20473;-82
2021/03/24 04:09:35;;;;;;;10.63;6.78;;;;;;;-4.96;94.60;93669.09;2112118;27;20446;-85
2021/03/24 04:10:39;;;;;;;11.52;6.70;;;;;;;-4.99;95.20;93667.88;2112459;28;20445;-85
2021/03/24 04:11:50;;;;;;;13.13;8.13;;;;;;;-5.01;94.38;93680.41;2106438;28;20454;-82
2021/03/24 04:12:52;;;;;;;11.57;7.85;;;;;;;-5.00;95.06;93673.38;2108674;27;20981;-84
2021/03/24 04:13:56;;;;;;;14.60;8.30;;;;;;;-5.00;95.90;93665.53;2099421;28;20533;-85
2021/03/24 04:14:57;;;;;;;11.88;7.60;;;;;;;-5.01;94.69;93667.38;2111029;27;20407;-80
2021/03/24 04:16:00;;;;;;;13.68;8.32;;;;;;;-5.10;94.88;93661.41;2115023;28;20442;-82
2021/03/24 04:17:00;;;;;;;12.77;7.68;;;;;;;-5.04;94.39;93664.66;2092474;28;20052;-83
2021/03/24 04:18:09;;;;;;;10.93;7.18;;;;;;;-5.06;94.75;93664.94;2093484;28;20451;-83
2021/03/24 04:19:13;;;;;;;12.95;6.93;;;;;;;-5.04;94.17;93662.03;2099036;28;20021;-81
2021/03/24 04:20:16;;;;;;;12.38;7.25;;;;;;;-5.11;93.77;93665.84;2098521;28;20453;-82
2021/03/24 04:21:19;;;;;;;11.20;7.43;;;;;;;-5.13;93.84;93660.19;2106860;28;20473;-83
2021/03/24 04:22:25;;;;;;;10.43;6.93;;;;;;;-5.11;93.58;93660.63;2111236;27;20888;-82
2021/03/24 04:23:29;;;;;;;11.98;6.97;;;;;;;-5.14;93.11;93663.84;2115526;27;20452;-83
2021/03/24 04:24:38;;;;;;;13.25;7.75;;;;;;;-5.08;93.79;93667.84;2114417;28;20525;-82
2021/03/24 04:25:48;;;;;;;9.95;6.43;;;;;;;-5.10;94.32;93662.16;2097079;28;20597;-84
2021/03/24 04:26:51;;;;;;;10.77;7.57;;;;;;;-5.13;94.75;93670.59;2112385;27;20093;-83
2021/03/24 04:27:55;;;;;;;13.13;7.28;;;;;;;-5.09;94.82;93666.31;2102536;28;20451;-84
2021/03/24 04:29:01;;;;;;;15.82;7.10;;;;;;;-5.06;95.68;93657.13;2101491;28;20443;-83
2021/03/24 04:30:12;;;;;;;11.15;7.10;;;;;;;-5.04;94.68;93662.81;2105302;28;20458;-82
2021/03/24 04:31:15;;;;;;;12.90;7.97;;;;;;;-5.03;95.22;93663.56;2100531;28;20486;-80
2021/03/24 04:32:16;;;;;;;12.68;7.60;;;;;;;-5.06;94.56;93659.72;2104798;28;20439;-85
2021/03/24 04:33:16;;;;;;;11.80;6.88;;;;;;;-5.14;94.39;93655.25;2097004;28;20457;-84
2021/03/24 04:34:18;;;;;;;12.57;7.43;;;;;;;-5.13;94.45;93665.38;2097274;28;20034;-82
2021/03/24 04:35:21;;;;;;;13.88;7.82;;;;;;;-5.11;94.66;93657.25;2102264;28;20020;-83
2021/03/24 04:36:27;;;;;;;11.93;7.25;;;;;;;-5.10;94.50;93656.19;2096889;28;20462;-81
2021/03/24 04:37:47;;;;;;;13.20;7.72;;;;;;;-5.21;94.33;93655.72;2096942;28;20482;-84
2021/03/24 04:38:56;;;;;;;12.45;7.57;;;;;;;-5.17;94.66;93653.28;2111100;27;20418;-81
2021/03/24 04:39:56;;;;;;;12.23;7.05;;;;;;;-5.16;94.39;93650.34;2114159;27;20534;-84
2021/03/24 04:41:02;;;;;;;14.38;6.85;;;;;;;-5.12;94.47;93650.53;2111074;28;20521;-84
2021/03/24 04:42:10;;;;;;;9.70;6.70;;;;;;;-5.11;93.78;93657.25;2105663;28;20089;-80
2021/03/24 04:43:18;;;;;;;10.35;6.50;;;;;;;-5.14;94.16;93661.22;2106675;27;20784;-83
2021/03/24 04:44:26;;;;;;;13.52;7.32;;;;;;;-5.11;93.58;93658.03;2113840;27;20529;-81
2021/03/24 04:45:51;;;;;;;10.13;6.45;;;;;;;-5.12;92.85;93659.09;2114600;27;20453;-84
2021/03/24 04:46:58;;;;;;;11.90;6.95;;;;;;;-5.13;93.87;93659.41;2098001;28;20506;-81
2021/03/24 04:48:02;;;;;;;11.98;6.80;;;;;;;-5.19;94.08;93665.81;2097975;28;20545;-83
2021/03/24 04:49:09;;;;;;;12.20;7.15;;;;;;;-5.14;93.34;93666.44;2105654;28;20465;-83
2021/03/24 04:50:22;;;;;;;12.18;7.38;;;;;;;-5.16;94.14;93662.63;2105683;28;20535;-84
2021/03/24 04:51:28;;;;;;;10.68;6.65;;;;;;;-5.18;92.90;93668.16;2099179;28;20468;-82
2021/03/24 04:52:33;;;;;;;12.68;7.13;;;;;;;-5.20;94.07;93670.28;2095860;28;20475;-81
2021/03/24 04:53:46;;;;;;;11.77;7.28;;;;;;;-5.19;93.25;93666.59;2094430;28;20838;-81
2021/03/24 04:54:47;;;;;;;10.68;6.32;;;;;;;-5.16;93.34;93660.00;2102110;28;20466;-82
2021/03/24 04:55:51;;;;;;;10.55;6.78;;;;;;;-5.22;92.78;93658.63;2093601;28;20461;-82
2021/03/24 04:57:02;;;;;;;12.52;7.20;;;;;;;-5.24;91.84;93668.56;2110432;28;20504;-84
2021/03/24 04:58:05;;;;;;;12.40;7.43;;;;;;;-5.25;93.06;93667.81;2111259;28;20513;-84
2021/03/24 04:59:09;;;;;;;10.50;6.82;;;;;;;-5.25;93.16;93659.22;2103995;28;20482;-83
2021/03/24 05:00:23;;;;;;;13.20;7.60;;;;;;;-5.28;93.32;93660.59;2105528;27;20438;-81
2021/03/24 05:01:26;;;;;;;9.23;6.28;;;;;;;-5.25;93.40;93664.44;2100417;28;20814;-82